createdAt,value
2019-03-21T00:01:54.000Z,101248.72
2019-03-21T00:04:29.847Z,101247.39
2019-03-21T00:07:05.701Z,101252.66
2019-03-21T00:09:44.632Z,101243.48
2019-03-21T00:12:20.518Z,101241.69
2019-03-21T00:14:59.404Z,101241.70
2019-03-21T00:17:44.283Z,101243.02
2019-03-21T00:20:20.444Z,101236.02
2019-03-21T00:22:56.804Z,101229.86
2019-03-21T00:25:32.651Z,101230.75
2019-03-21T00:28:08.624Z,101223.28
2019-03-21T00:30:45.601Z,101225.92
2019-03-21T00:33:21.450Z,101224.16
2019-03-21T00:35:57.294Z,101219.77
2019-03-21T00:38:33.159Z,101227.22
2019-03-21T00:41:09.311Z,101224.99
2019-03-21T00:43:45.471Z,101231.14
2019-03-21T00:46:21.334Z,101229.80
2019-03-21T00:48:57.193Z,101225.86
2019-03-21T00:51:33.138Z,101224.52
2019-03-21T00:54:10.425Z,101224.52
2019-03-21T00:56:46.747Z,101213.97
2019-03-21T00:59:22.551Z,101214.00
2019-03-21T01:01:58.768Z,101211.38
2019-03-21T01:04:34.561Z,101209.16
2019-03-21T01:07:10.436Z,101204.37
2019-03-21T01:09:46.274Z,101205.69
2019-03-21T01:12:22.022Z,101209.20
2019-03-21T01:14:58.379Z,101216.20
2019-03-21T01:17:34.603Z,101211.81
2019-03-21T01:20:17.574Z,101213.10
2019-03-21T01:22:53.629Z,101206.53
2019-03-21T01:25:47.814Z,101206.96
2019-03-21T01:28:23.660Z,101206.96
2019-03-21T01:30:59.638Z,101202.98
2019-03-21T01:33:35.479Z,101199.91
2019-03-21T01:36:11.338Z,101206.49
2019-03-21T01:38:47.189Z,101206.06
2019-03-21T01:41:22.964Z,101200.33
2019-03-21T01:43:58.901Z,101193.34
2019-03-21T01:46:34.751Z,101209.09
2019-03-21T01:49:10.610Z,101201.20
2019-03-21T01:51:47.522Z,101202.49
2019-03-21T01:54:23.436Z,101201.20
2019-03-21T01:56:59.390Z,101206.91
2019-03-21T01:59:35.239Z,101207.80
2019-03-21T02:02:11.195Z,101206.91
2019-03-21T02:04:47.064Z,101205.59
2019-03-21T02:07:22.923Z,101202.56
2019-03-21T02:09:58.859Z,101205.64
2019-03-21T02:12:35.069Z,101206.51
2019-03-21T02:15:15.292Z,101198.63
2019-03-21T02:17:51.553Z,101198.59
2019-03-21T02:20:27.767Z,101202.53
2019-03-21T02:23:03.572Z,101199.47
2019-03-21T02:25:44.851Z,101195.08
2019-03-21T02:28:20.708Z,101191.58
2019-03-21T02:30:57.063Z,101191.12
2019-03-21T02:33:39.268Z,101200.81
2019-03-21T02:36:15.221Z,101203.44
2019-03-21T02:38:51.181Z,101195.97
2019-03-21T02:41:27.032Z,101198.12
2019-03-21T02:44:03.000Z,101198.14
2019-03-21T02:46:39.258Z,101188.12
2019-03-21T02:49:16.132Z,101190.76
2019-03-21T02:51:51.985Z,101187.25
2019-03-21T02:54:28.047Z,101192.06
2019-03-21T02:57:03.905Z,101192.06
2019-03-21T02:59:39.762Z,101190.75
2019-03-21T03:02:15.611Z,101192.06
2019-03-21T03:04:51.617Z,101188.56
2019-03-21T03:07:27.416Z,101188.55
2019-03-21T03:10:03.386Z,101178.45
2019-03-21T03:12:39.428Z,101185.00
2019-03-21T03:15:23.262Z,101179.30
2019-03-21T03:17:56.567Z,101173.97
2019-03-21T03:20:32.951Z,101179.27
2019-03-21T03:23:08.749Z,101174.42
2019-03-21T03:25:45.252Z,101170.00
2019-03-21T03:28:23.770Z,101172.22
2019-03-21T03:31:00.017Z,101171.75
2019-03-21T03:33:36.207Z,101168.64
2019-03-21T03:36:12.909Z,101174.27
2019-03-21T03:38:49.325Z,101179.91
2019-03-21T03:41:25.373Z,101173.75
2019-03-21T03:44:01.161Z,101181.13
2019-03-21T03:46:36.998Z,101180.20
2019-03-21T03:49:12.761Z,101187.20
2019-03-21T03:51:48.640Z,101188.97
2019-03-21T03:54:24.768Z,101184.95
2019-03-21T03:57:01.657Z,101198.98
2019-03-21T03:59:37.702Z,101203.35
2019-03-21T04:02:13.826Z,101206.81
2019-03-21T04:04:49.932Z,101210.73
2019-03-21T04:07:25.990Z,101208.89
2019-03-21T04:10:01.837Z,101210.17
2019-03-21T04:12:38.086Z,101210.14
2019-03-21T04:15:15.552Z,101204.41
2019-03-21T04:17:51.356Z,101200.91
2019-03-21T04:20:42.365Z,101204.45
2019-03-21T04:23:20.662Z,101199.19
2019-03-21T04:26:11.692Z,101206.22
2019-03-21T04:28:47.522Z,101196.52
2019-03-21T04:31:23.387Z,101208.33
2019-03-21T04:34:02.716Z,101201.29
2019-03-21T04:36:38.570Z,101205.58
2019-03-21T04:39:14.635Z,101202.41
2019-03-21T04:41:50.589Z,101196.27
2019-03-21T04:44:26.446Z,101199.27
2019-03-21T04:47:02.306Z,101199.27
2019-03-21T04:49:38.249Z,101202.73
2019-03-21T04:52:13.998Z,101204.47
2019-03-21T04:54:49.917Z,101200.91
2019-03-21T04:57:25.820Z,101195.19
2019-03-21T05:00:03.673Z,101194.28
2019-03-21T05:02:41.474Z,101200.36
2019-03-21T05:05:18.285Z,101196.78
2019-03-21T05:07:54.291Z,101191.04
2019-03-21T05:10:31.232Z,101190.09
2019-03-21T05:13:07.085Z,101187.35
2019-03-21T05:15:47.188Z,101191.75
2019-03-21T05:18:41.214Z,101186.89
2019-03-21T05:21:23.071Z,101192.56
2019-03-21T05:23:59.077Z,101199.12
2019-03-21T05:26:35.118Z,101191.66
2019-03-21T05:29:11.091Z,101195.09
2019-03-21T05:31:48.159Z,101203.36
2019-03-21T05:34:24.019Z,101206.42
2019-03-21T05:37:00.805Z,101207.69
2019-03-21T05:39:36.657Z,101214.64
2019-03-21T05:42:13.703Z,101204.89
2019-03-21T05:44:49.596Z,101209.75
2019-03-21T05:47:25.446Z,101211.88
2019-03-21T05:50:01.959Z,101207.45
2019-03-21T05:52:37.898Z,101210.00
2019-03-21T05:55:14.028Z,101212.68
2019-03-21T05:57:50.035Z,101221.41
2019-03-21T06:00:28.804Z,101218.71
2019-03-21T06:03:06.085Z,101225.66
2019-03-21T06:05:45.326Z,101225.53
2019-03-21T06:08:24.243Z,101223.75
2019-03-21T06:11:00.120Z,101214.00
2019-03-21T06:13:36.686Z,101219.20
2019-03-21T06:16:13.554Z,101220.36
2019-03-21T06:18:52.684Z,101229.02
2019-03-21T06:21:49.735Z,101226.69
2019-03-21T06:24:38.600Z,101231.46
2019-03-21T06:27:28.892Z,101228.30
2019-03-21T06:30:06.927Z,101232.11
2019-03-21T06:32:42.759Z,101232.45
2019-03-21T06:35:20.538Z,101240.30
2019-03-21T06:37:57.536Z,101244.28
2019-03-21T06:40:33.380Z,101244.25
2019-03-21T06:43:09.597Z,101248.09
2019-03-21T06:45:48.212Z,101244.09
2019-03-21T06:48:23.760Z,101238.80
2019-03-21T06:50:59.575Z,101244.86
2019-03-21T06:53:35.822Z,101247.84
2019-03-21T06:56:11.684Z,101256.41
2019-03-21T06:58:47.523Z,101245.61
2019-03-21T07:01:23.279Z,101249.81
2019-03-21T07:04:07.033Z,101246.22
2019-03-21T07:06:36.629Z,101245.62
2019-03-21T07:09:12.584Z,101246.75
2019-03-21T07:11:49.504Z,101249.30
2019-03-21T07:14:26.848Z,101250.63
2019-03-21T07:17:03.635Z,101253.91
2019-03-21T07:19:40.481Z,101249.27
2019-03-21T07:22:16.271Z,101258.31
2019-03-21T07:24:52.025Z,101258.23
2019-03-21T07:27:27.854Z,101254.27
2019-03-21T07:30:05.099Z,101269.17
2019-03-21T07:32:40.833Z,101265.41
2019-03-21T07:35:16.615Z,101262.52
2019-03-21T07:37:52.490Z,101267.22
2019-03-21T07:40:28.305Z,101272.77
2019-03-21T07:43:04.064Z,101278.72
2019-03-21T07:45:39.838Z,101279.86
2019-03-21T07:48:15.754Z,101274.26
2019-03-21T07:50:52.156Z,101276.34
2019-03-21T07:53:27.854Z,101276.03
2019-03-21T07:56:03.810Z,101278.38
2019-03-21T07:58:40.190Z,101282.98
2019-03-21T08:01:16.135Z,101291.23
2019-03-21T08:03:51.858Z,101286.95
2019-03-21T08:06:27.746Z,101288.08
2019-03-21T08:09:04.212Z,101284.75
2019-03-21T08:11:40.072Z,101282.41
2019-03-21T08:14:15.881Z,101284.16
2019-03-21T08:16:51.758Z,101288.66
2019-03-21T08:19:27.616Z,101290.95
2019-03-21T08:22:03.501Z,101284.22
2019-03-21T08:24:39.425Z,101283.52
2019-03-21T08:27:15.246Z,101287.77
2019-03-21T08:29:51.655Z,101287.99
2019-03-21T08:32:27.491Z,101286.42
2019-03-21T08:35:04.481Z,101289.52
2019-03-21T08:37:40.342Z,101294.34
2019-03-21T08:40:16.393Z,101292.40
2019-03-21T08:42:52.551Z,101292.61
2019-03-21T08:45:29.832Z,101301.45
2019-03-21T08:48:05.792Z,101289.12
2019-03-21T08:50:42.064Z,101295.88
2019-03-21T08:53:18.284Z,101303.57
2019-03-21T08:55:54.170Z,101294.62
2019-03-21T08:58:30.289Z,101293.36
2019-03-21T09:01:06.298Z,101294.70
2019-03-21T09:03:42.710Z,101289.91
2019-03-21T09:06:18.877Z,101287.25
2019-03-21T09:08:54.679Z,101286.71
2019-03-21T09:11:30.632Z,101285.34
2019-03-21T09:14:06.476Z,101288.83
2019-03-21T09:16:42.335Z,101282.29
2019-03-21T09:19:18.280Z,101291.78
2019-03-21T09:21:54.147Z,101288.92
2019-03-21T09:24:30.002Z,101291.25
2019-03-21T09:27:05.964Z,101287.89
2019-03-21T09:29:52.822Z,101295.61
2019-03-21T09:32:20.419Z,101293.34
2019-03-21T09:34:56.701Z,101299.12
2019-03-21T09:37:32.507Z,101292.48
2019-03-21T09:40:10.960Z,101289.83
2019-03-21T09:42:46.821Z,101292.72
2019-03-21T09:45:22.831Z,101292.08
2019-03-21T09:47:58.729Z,101293.88
2019-03-21T09:50:34.580Z,101295.44
2019-03-21T09:53:10.363Z,101300.47
2019-03-21T09:55:46.188Z,101304.25
2019-03-21T09:58:22.037Z,101306.62
2019-03-21T10:00:57.905Z,101307.48
2019-03-21T10:03:33.746Z,101311.97
2019-03-21T10:06:09.613Z,101304.13
2019-03-21T10:08:45.464Z,101304.77
2019-03-21T10:11:21.319Z,101309.06
2019-03-21T10:13:57.167Z,101306.78
2019-03-21T10:16:33.022Z,101303.60
2019-03-21T10:19:09.158Z,101303.56
2019-03-21T10:21:44.930Z,101298.45
2019-03-21T10:24:20.793Z,101297.25
2019-03-21T10:26:56.636Z,101300.74
2019-03-21T10:29:32.809Z,101298.37
2019-03-21T10:32:14.128Z,101295.71
2019-03-21T10:34:46.445Z,101297.26
2019-03-21T10:37:22.318Z,101294.89
2019-03-21T10:39:58.261Z,101292.52
2019-03-21T10:42:34.115Z,101296.22
2019-03-21T10:45:09.976Z,101294.10
2019-03-21T10:47:45.817Z,101300.81
2019-03-21T10:50:39.338Z,101294.92
2019-03-21T10:53:15.243Z,101299.98
2019-03-21T10:55:51.267Z,101300.53
2019-03-21T10:58:27.165Z,101296.88
2019-03-21T11:01:03.026Z,101297.89
2019-03-21T11:03:39.178Z,101299.38
2019-03-21T11:06:15.550Z,101296.22
2019-03-21T11:08:51.393Z,101296.19
2019-03-21T11:11:27.353Z,101291.56
2019-03-21T11:14:03.205Z,101289.86
2019-03-21T11:16:39.056Z,101280.41
2019-03-21T11:19:15.018Z,101284.37
2019-03-21T11:21:50.884Z,101283.58
2019-03-21T11:24:26.734Z,101276.37
2019-03-21T11:27:02.637Z,101278.84
2019-03-21T11:29:38.572Z,101269.03
2019-03-21T11:32:14.385Z,101269.12
2019-03-21T11:34:50.308Z,101262.77
2019-03-21T11:37:26.227Z,101256.09
2019-03-21T11:40:02.071Z,101254.33
2019-03-21T11:42:38.223Z,101248.42
2019-03-21T11:45:15.122Z,101249.61
2019-03-21T11:47:51.160Z,101241.31
2019-03-21T11:50:27.018Z,101239.77
2019-03-21T11:53:02.852Z,101232.44
2019-03-21T11:55:38.712Z,101222.89
2019-03-21T11:58:14.578Z,101220.16
2019-03-21T12:00:50.431Z,101217.81
2019-03-21T12:03:26.370Z,101213.98
2019-03-21T12:06:02.230Z,101211.02
2019-03-21T12:08:38.196Z,101213.05
2019-03-21T12:11:14.047Z,101217.80
2019-03-21T12:13:50.323Z,101217.64
2019-03-21T12:16:26.170Z,101210.19
2019-03-21T12:19:02.017Z,101198.49
2019-03-21T12:21:37.862Z,101198.91
2019-03-21T12:24:13.717Z,101204.05
2019-03-21T12:26:49.580Z,101201.91
2019-03-21T12:29:25.432Z,101199.14
2019-03-21T12:32:01.294Z,101199.84
2019-03-21T12:34:37.243Z,101194.72
2019-03-21T12:37:13.395Z,101194.07
2019-03-21T12:39:49.499Z,101192.53
2019-03-21T12:42:25.416Z,101180.59
2019-03-21T12:45:01.587Z,101184.14
2019-03-21T12:47:37.634Z,101183.13
2019-03-21T12:50:13.500Z,101187.24
2019-03-21T12:52:49.344Z,101180.45
2019-03-21T12:55:25.190Z,101173.70
2019-03-21T12:58:01.160Z,101173.33
2019-03-21T13:00:39.476Z,101177.02
2019-03-21T13:03:15.334Z,101160.38
2019-03-21T13:05:51.171Z,101174.77
2019-03-21T13:08:33.769Z,101163.20
2019-03-21T13:11:04.734Z,101172.27
2019-03-21T13:13:41.703Z,101157.20
2019-03-21T13:16:17.598Z,101162.73
2019-03-21T13:18:53.523Z,101156.69
2019-03-21T13:21:29.476Z,101156.74
2019-03-21T13:24:05.551Z,101162.47
2019-03-21T13:26:41.485Z,101156.16
2019-03-21T13:29:17.455Z,101154.33
2019-03-21T13:31:53.815Z,101150.77
2019-03-21T13:34:29.662Z,101150.59
2019-03-21T13:37:05.525Z,101155.55
2019-03-21T13:39:41.385Z,101153.67
2019-03-21T13:42:17.492Z,101148.51
2019-03-21T13:44:53.410Z,101147.41
2019-03-21T13:47:29.708Z,101148.03
2019-03-21T13:50:09.612Z,101136.97
2019-03-21T13:52:45.453Z,101132.37
2019-03-21T13:55:21.672Z,101127.72
2019-03-21T13:57:57.595Z,101120.31
2019-03-21T14:00:33.537Z,101109.84
2019-03-21T14:03:09.380Z,101110.65
2019-03-21T14:05:45.380Z,101109.05
2019-03-21T14:08:21.120Z,101107.76
2019-03-21T14:10:56.922Z,101096.25
2019-03-21T14:13:32.693Z,101098.53
2019-03-21T14:16:08.546Z,101095.16
2019-03-21T14:18:44.771Z,101094.78
2019-03-21T14:21:20.518Z,101083.83
2019-03-21T14:23:56.434Z,101085.42
2019-03-21T14:26:32.278Z,101090.58
2019-03-21T14:29:12.899Z,101086.25
2019-03-21T14:31:45.757Z,101087.05
2019-03-21T14:34:21.551Z,101075.78
2019-03-21T14:36:57.392Z,101076.58
2019-03-21T14:39:33.327Z,101080.62
2019-03-21T14:42:09.136Z,101074.88
2019-03-21T14:44:44.880Z,101070.81
2019-03-21T14:47:20.625Z,101067.83
2019-03-21T14:49:56.489Z,101071.94
2019-03-21T14:52:32.409Z,101065.38
2019-03-21T14:55:09.564Z,101058.47
2019-03-21T14:57:45.654Z,101059.41
2019-03-21T15:00:21.560Z,101061.77
2019-03-21T15:02:57.410Z,101055.33
2019-03-21T15:05:33.340Z,101053.14
2019-03-21T15:08:09.184Z,101050.99
2019-03-21T15:10:45.085Z,101053.27
2019-03-21T15:13:20.951Z,101051.83
2019-03-21T15:15:56.885Z,101052.47
2019-03-21T15:18:32.734Z,101050.02
2019-03-21T15:21:08.583Z,101047.67
2019-03-21T15:23:44.550Z,101052.70
2019-03-21T15:26:20.407Z,101050.02
2019-03-21T15:28:56.460Z,101052.13
2019-03-21T15:31:32.562Z,101054.42
2019-03-21T15:34:08.904Z,101052.77
2019-03-21T15:36:44.753Z,101059.61
2019-03-21T15:39:20.892Z,101056.24
2019-03-21T15:41:57.009Z,101054.99
2019-03-21T15:44:33.142Z,101056.23
2019-03-21T15:47:08.911Z,101057.80
2019-03-21T15:49:44.706Z,101053.34
2019-03-21T15:52:20.476Z,101054.36
2019-03-21T15:54:56.361Z,101055.52
2019-03-21T15:57:32.178Z,101057.64
2019-03-21T16:00:10.509Z,101062.25
2019-03-21T16:02:46.323Z,101061.62
2019-03-21T16:05:22.095Z,101060.03
2019-03-21T16:07:57.888Z,101057.98
2019-03-21T16:10:33.750Z,101058.05
2019-03-21T16:13:09.969Z,101065.20
2019-03-21T16:15:45.757Z,101059.75
2019-03-21T16:18:21.565Z,101062.79
2019-03-21T16:20:57.554Z,101067.71
2019-03-21T16:23:33.355Z,101062.47
2019-03-21T16:26:09.123Z,101064.48
2019-03-21T16:28:44.926Z,101066.51
2019-03-21T16:31:20.789Z,101068.27
2019-03-21T16:33:56.591Z,101072.69
2019-03-21T16:36:32.483Z,101070.31
2019-03-21T16:39:08.360Z,101074.14
2019-03-21T16:41:44.156Z,101067.02
2019-03-21T16:44:19.908Z,101068.13
2019-03-21T16:46:55.702Z,101064.92
2019-03-21T16:49:31.496Z,101073.27
2019-03-21T16:52:07.370Z,101065.55
2019-03-21T16:54:43.146Z,101072.69
2019-03-21T16:57:18.918Z,101070.80
2019-03-21T16:59:54.705Z,101075.08
2019-03-21T17:02:30.519Z,101071.47
2019-03-21T17:05:06.697Z,101078.73
2019-03-21T17:07:42.519Z,101072.73
2019-03-21T17:10:18.490Z,101070.06
2019-03-21T17:12:54.397Z,101074.30
2019-03-21T17:15:30.192Z,101077.95
2019-03-21T17:18:06.588Z,101076.70
2019-03-21T17:20:42.724Z,101078.91
2019-03-21T17:23:18.566Z,101073.48
2019-03-21T17:25:54.356Z,101073.83
2019-03-21T17:28:30.424Z,101067.25
2019-03-21T17:31:06.181Z,101069.58
2019-03-21T17:33:42.035Z,101062.58
2019-03-21T17:36:20.629Z,101070.28
2019-03-21T17:38:55.396Z,101069.61
2019-03-21T17:41:31.209Z,101073.44
2019-03-21T17:44:07.111Z,101078.09
2019-03-21T17:46:42.954Z,101081.28
2019-03-21T17:49:18.924Z,101081.02
2019-03-21T17:51:55.737Z,101092.84
2019-03-21T17:54:40.995Z,101092.84
2019-03-21T17:57:09.020Z,101093.36
2019-03-21T17:59:44.884Z,101086.48
2019-03-21T18:02:20.695Z,101087.42
2019-03-21T18:04:56.507Z,101084.52
2019-03-21T18:07:32.281Z,101082.84
2019-03-21T18:10:16.876Z,101086.91
2019-03-21T18:12:52.962Z,101091.98
2019-03-21T18:15:28.848Z,101092.19
2019-03-21T18:18:04.887Z,101094.77
2019-03-21T18:20:40.642Z,101096.97
2019-03-21T18:23:16.702Z,101095.84
2019-03-21T18:25:52.641Z,101093.23
2019-03-21T18:28:28.540Z,101097.31
2019-03-21T18:31:04.348Z,101097.82
2019-03-21T18:33:40.338Z,101100.44
2019-03-21T18:36:16.152Z,101099.67
2019-03-21T18:38:58.710Z,101104.13
2019-03-21T18:41:30.241Z,101102.80
2019-03-21T18:44:06.024Z,101099.28
2019-03-21T18:46:41.806Z,101095.84
2019-03-21T18:49:17.635Z,101096.48
2019-03-21T18:51:53.461Z,101102.39
2019-03-21T18:54:29.249Z,101101.63
2019-03-21T18:57:05.051Z,101104.41
2019-03-21T18:59:40.875Z,101108.55
2019-03-21T19:02:16.924Z,101111.77
2019-03-21T19:04:52.705Z,101112.78
2019-03-21T19:07:29.539Z,101108.05
2019-03-21T19:10:10.788Z,101104.62
2019-03-21T19:12:47.159Z,101107.39
2019-03-21T19:15:23.077Z,101105.02
2019-03-21T19:17:59.156Z,101112.33
2019-03-21T19:20:34.973Z,101107.98
2019-03-21T19:23:10.752Z,101109.03
2019-03-21T19:25:46.755Z,101100.86
2019-03-21T19:28:22.527Z,101097.50
2019-03-21T19:30:58.379Z,101102.46
2019-03-21T19:33:34.167Z,101107.93
2019-03-21T19:36:10.020Z,101105.94
2019-03-21T19:38:45.879Z,101100.95
2019-03-21T19:41:22.851Z,101098.37
2019-03-21T19:43:58.701Z,101097.66
2019-03-21T19:46:34.562Z,101094.25
2019-03-21T19:49:10.518Z,101098.95
2019-03-21T19:51:46.478Z,101104.52
2019-03-21T19:54:22.320Z,101097.66
2019-03-21T19:56:58.184Z,101094.36
2019-03-21T19:59:34.150Z,101100.03
2019-03-21T20:02:09.998Z,101096.72
2019-03-21T20:04:48.245Z,101098.68
2019-03-21T20:07:23.578Z,101102.07
2019-03-21T20:09:59.491Z,101104.36
2019-03-21T20:12:36.096Z,101102.20
2019-03-21T20:15:16.707Z,101098.30
2019-03-21T20:17:52.721Z,101098.42
2019-03-21T20:20:30.983Z,101098.42
2019-03-21T20:23:06.558Z,101097.59
2019-03-21T20:25:43.442Z,101095.88
2019-03-21T20:28:19.485Z,101092.09
2019-03-21T20:30:55.356Z,101094.91
2019-03-21T20:33:31.143Z,101094.27
2019-03-21T20:36:07.057Z,101085.58
2019-03-21T20:38:42.913Z,101091.48
2019-03-21T20:41:18.761Z,101087.75
2019-03-21T20:43:54.618Z,101089.76
2019-03-21T20:46:30.576Z,101096.97
2019-03-21T20:49:06.743Z,101089.05
2019-03-21T20:51:43.200Z,101095.28
2019-03-21T20:54:19.257Z,101091.67
2019-03-21T20:56:55.837Z,101091.58
2019-03-21T20:59:31.678Z,101097.59
2019-03-21T21:02:07.738Z,101092.09
2019-03-21T21:04:45.126Z,101090.55
2019-03-21T21:07:20.990Z,101094.37
2019-03-21T21:09:56.939Z,101090.59
2019-03-21T21:12:32.801Z,101091.27
2019-03-21T21:15:11.018Z,101090.59
2019-03-21T21:17:46.869Z,101089.61
2019-03-21T21:20:22.722Z,101093.95
2019-03-21T21:22:58.553Z,101089.50
2019-03-21T21:25:34.427Z,101086.55
2019-03-21T21:28:10.272Z,101086.59
2019-03-21T21:30:46.124Z,101089.14
2019-03-21T21:33:22.000Z,101088.31
2019-03-21T21:35:57.836Z,101082.50
2019-03-21T21:38:33.803Z,101081.61
2019-03-21T21:41:09.659Z,101084.30
2019-03-21T21:43:45.505Z,101084.33
2019-03-21T21:46:21.718Z,101083.89
2019-03-21T21:48:57.732Z,101087.05
2019-03-21T21:51:33.581Z,101088.54
2019-03-21T21:54:10.101Z,101089.00
2019-03-21T21:56:46.954Z,101086.12
2019-03-21T21:59:23.037Z,101085.72
2019-03-21T22:01:59.387Z,101089.00
2019-03-21T22:04:35.300Z,101086.53
2019-03-21T22:07:11.160Z,101094.37
2019-03-21T22:09:48.013Z,101090.09
2019-03-21T22:12:23.894Z,101089.85
2019-03-21T22:14:59.748Z,101090.38
2019-03-21T22:17:35.518Z,101087.81
2019-03-21T22:20:16.760Z,101083.56
2019-03-21T22:22:52.622Z,101093.73
2019-03-21T22:25:28.494Z,101096.07
2019-03-21T22:28:04.336Z,101094.47
2019-03-21T22:30:40.188Z,101098.96
2019-03-21T22:33:16.050Z,101095.56
2019-03-21T22:35:51.898Z,101098.80
2019-03-21T22:38:27.722Z,101096.60
2019-03-21T22:41:03.613Z,101094.07
2019-03-21T22:43:39.465Z,101098.59
2019-03-21T22:46:15.323Z,101090.84
2019-03-21T22:48:51.116Z,101092.22
2019-03-21T22:51:28.833Z,101093.17
2019-03-21T22:54:04.617Z,101092.39
2019-03-21T22:56:41.469Z,101088.51
2019-03-21T22:59:17.720Z,101085.91
2019-03-21T23:01:53.506Z,101082.11
2019-03-21T23:04:29.364Z,101079.95
2019-03-21T23:07:05.541Z,101080.20
2019-03-21T23:09:41.388Z,101075.39
2019-03-21T23:12:17.229Z,101078.16
2019-03-21T23:14:53.105Z,101078.27
2019-03-21T23:17:28.953Z,101079.67
2019-03-21T23:20:10.842Z,101078.81
2019-03-21T23:22:47.336Z,101072.30
2019-03-21T23:25:23.421Z,101079.91
2019-03-21T23:27:59.327Z,101086.02
2019-03-21T23:30:35.174Z,101082.50
2019-03-21T23:33:11.127Z,101088.28
2019-03-21T23:35:46.993Z,101089.17
2019-03-21T23:38:22.848Z,101085.61
2019-03-21T23:40:59.112Z,101084.29
2019-03-21T23:43:36.077Z,101084.29
2019-03-21T23:46:11.934Z,101085.72
2019-03-21T23:48:47.784Z,101087.03
2019-03-21T23:51:24.572Z,101093.66
2019-03-21T23:54:00.421Z,101090.14
2019-03-21T23:56:36.490Z,101090.16
2019-03-21T23:59:12.341Z,101092.41
